Time;durP1;ratioP1;P1;durP2;ratioP2;P2;SDS_P1;SDS_P2;PMS_P1;PMS_P2;Temp;Humidity;BMP_temperature;BMP_pressure;BME280_temperature;BME280_humidity;BME280_pressure;Samples;Min_cycle;Max_cycle;Signal;HPM_P1;HPM_P2
2024/03/15 00:05:32;;;;;;;5.13;2.10;;;4.00;99.90;;;;;;1952697;71;27017;-90
2024/03/15 00:38:29;;;;;;;8.57;4.17;;;4.50;99.90;;;;;;1933174;74;26467;-91
2024/03/15 00:41:26;;;;;;;8.77;3.80;;;4.50;99.90;;;;;;1902953;74;25680;-91
2024/03/15 00:44:16;;;;;;;9.63;3.63;;;4.60;99.90;;;;;;1877191;75;25832;-89
2024/03/15 01:46:01;;;;;;;12.07;4.90;;;4.30;99.90;;;;;;1836046;77;27174;-90
2024/03/15 02:22:49;;;;;;;35.87;7.77;;;4.50;99.90;;;;;;1957783;72;26853;-91
2024/03/15 02:26:03;;;;;;;27.37;6.93;;;4.50;99.90;;;;;;1920010;72;25302;-91
2024/03/15 02:49:56;;;;;;;62.73;8.73;;;4.50;99.90;;;;;;1826189;77;26249;-90
2024/03/15 02:55:35;;;;;;;53.50;7.40;;;4.20;99.90;;;;;;1912024;73;28291;-90
2024/03/15 02:58:26;;;;;;;51.87;7.77;;;4.20;99.90;;;;;;1900618;73;25159;-90
2024/03/15 03:01:17;;;;;;;44.63;8.07;;;4.20;99.90;;;;;;1899775;73;25638;-91
2024/03/15 03:04:12;;;;;;;42.37;8.27;;;4.20;99.90;;;;;;1913287;74;25172;-90
2024/03/15 03:07:03;;;;;;;37.43;8.07;;;4.20;99.90;;;;;;1913717;73;25269;-90
2024/03/15 03:09:52;;;;;;;38.77;7.73;;;4.20;99.90;;;;;;1916279;75;25679;-90
2024/03/15 03:29:20;;;;;;;39.53;7.57;;;4.30;99.90;;;;;;1957778;72;27943;-88
2024/03/15 03:34:50;;;;;;;57.57;8.80;;;4.30;99.90;;;;;;1925857;72;28501;-88
2024/03/15 03:43:25;;;;;;;55.10;11.27;;;4.30;99.90;;;;;;1972249;72;26716;-90
2024/03/15 03:49:13;;;;;;;47.73;10.83;;;4.40;99.90;;;;;;1943296;72;27330;-90
2024/03/15 03:52:41;;;;;;;48.33;10.17;;;4.50;99.90;;;;;;1944564;72;25822;-90
2024/03/15 04:02:07;;;;;;;69.57;13.37;;;4.60;99.90;;;;;;1980676;71;26427;-91
2024/03/15 04:05:01;;;;;;;58.33;11.93;;;4.70;99.90;;;;;;2008993;70;25250;-91
2024/03/15 04:37:57;;;;;;;94.97;14.20;;;4.60;99.90;;;;;;1986701;71;26961;-89
2024/03/15 04:40:46;;;;;;;69.80;12.67;;;4.70;99.90;;;;;;1997859;70;25713;-90
2024/03/15 04:43:54;;;;;;;70.50;12.93;;;4.70;99.90;;;;;;1998346;70;25245;-90
2024/03/15 04:46:43;;;;;;;130.40;14.40;;;4.50;99.90;;;;;;2016287;69;25194;-90
2024/03/15 04:49:32;;;;;;;101.23;13.10;;;4.40;99.90;;;;;;2004782;70;26259;-91
2024/03/15 04:52:23;;;;;;;160.03;15.60;;;4.40;99.90;;;;;;1999736;70;25276;-90
2024/03/15 04:55:14;;;;;;;90.37;13.83;;;4.30;99.90;;;;;;1998052;70;25635;-91
2024/03/15 05:01:14;;;;;;;135.83;16.13;;;4.40;99.90;;;;;;2018366;70;25184;-89
2024/03/15 05:04:05;;;;;;;146.27;16.77;;;4.40;99.90;;;;;;2008861;70;25193;-90
2024/03/15 05:06:57;;;;;;;166.00;16.93;;;4.40;99.90;;;;;;2028979;69;25176;-91
2024/03/15 05:09:51;;;;;;;190.67;18.10;;;4.50;99.90;;;;;;2000331;70;25680;-91
2024/03/15 05:23:51;;;;;;;172.27;22.27;;;4.60;99.90;;;;;;1979548;71;26188;-88
2024/03/15 05:26:41;;;;;;;164.60;18.23;;;4.50;99.90;;;;;;1997044;70;25246;-90
2024/03/15 05:29:31;;;;;;;199.07;19.43;;;4.50;99.90;;;;;;2026270;70;25187;-91
2024/03/15 05:32:19;;;;;;;250.17;19.43;;;4.30;99.90;;;;;;2004091;70;25311;-90
2024/03/15 05:37:55;;;;;;;116.03;16.53;;;4.20;99.90;;;;;;1926456;72;26922;-88
2024/03/15 05:40:44;;;;;;;116.93;15.63;;;4.30;99.90;;;;;;1907113;73;25278;-90
2024/03/15 05:43:35;;;;;;;121.97;16.30;;;4.30;99.90;;;;;;1901563;73;25755;-90
2024/03/15 05:46:24;;;;;;;117.23;16.43;;;4.30;99.90;;;;;;1902341;73;25185;-90
2024/03/15 05:49:13;;;;;;;109.23;16.43;;;4.30;99.90;;;;;;1899361;73;25278;-90
2024/03/15 05:52:03;;;;;;;116.67;16.90;;;4.30;99.90;;;;;;1908018;73;25288;-90
2024/03/15 05:54:52;;;;;;;140.07;17.83;;;4.30;99.90;;;;;;1867897;75;25344;-90
2024/03/15 05:57:43;;;;;;;105.33;17.87;;;4.30;99.90;;;;;;1833526;76;25781;-90
2024/03/15 06:00:33;;;;;;;118.13;18.47;;;4.40;99.90;;;;;;1866464;76;25277;-90
2024/03/15 06:03:28;;;;;;;162.10;20.03;;;4.60;99.90;;;;;;1907525;73;25223;-90
2024/03/15 06:06:26;;;;;;;249.00;20.83;;;4.70;99.90;;;;;;1909439;73;25283;-90
2024/03/15 06:12:06;;;;;;;238.70;19.57;;;4.70;99.90;;;;;;2028652;69;27591;-88
2024/03/15 06:14:55;;;;;;;210.80;22.57;;;4.70;99.90;;;;;;1996448;71;25333;-90
2024/03/15 06:17:44;;;;;;;303.00;24.00;;;4.70;99.90;;;;;;1982944;71;25220;-90
2024/03/15 06:20:33;;;;;;;300.20;22.93;;;4.60;99.90;;;;;;1986527;71;25841;-90
2024/03/15 06:26:39;;;;;;;459.73;26.07;;;4.70;99.90;;;;;;2070636;68;26327;-88
2024/03/15 06:29:32;;;;;;;318.93;26.93;;;4.60;99.90;;;;;;2014547;70;25150;-88
2024/03/15 06:35:01;;;;;;;301.40;25.77;;;4.70;99.90;;;;;;1892635;74;27164;-88
2024/03/15 06:37:54;;;;;;;487.27;29.33;;;4.80;99.90;;;;;;1833175;77;25681;-90
2024/03/15 06:40:55;;;;;;;436.97;29.50;;;4.80;99.90;;;;;;1818840;77;25237;-90
2024/03/15 06:43:42;;;;;;;426.27;28.53;;;4.90;99.90;;;;;;1826590;77;25176;-90
2024/03/15 06:46:42;;;;;;;420.30;32.60;;;5.00;99.90;;;;;;1837361;77;25260;-91
2024/03/15 06:49:33;;;;;;;255.53;27.90;;;5.10;99.90;;;;;;1838835;77;25324;-91
2024/03/15 06:58:46;;;;;;;483.67;28.00;;;5.30;99.90;;;;;;1943655;72;26574;-89
2024/03/15 07:01:35;;;;;;;484.20;28.53;;;5.30;99.90;;;;;;1931860;73;25173;-90
2024/03/15 07:04:24;;;;;;;469.07;34.37;;;5.10;99.90;;;;;;1931234;73;25218;-90
2024/03/15 07:10:05;;;;;;;664.33;39.10;;;4.80;99.90;;;;;;1952394;72;26636;-90
2024/03/15 07:41:02;;;;;;;1054.83;66.73;;;5.40;99.90;;;;;;1950431;72;27796;-90
2024/03/15 07:43:50;;;;;;;964.20;61.23;;;5.50;99.90;;;;;;1946272;73;25201;-90
2024/03/15 07:46:38;;;;;;;671.43;51.07;;;5.70;99.90;;;;;;1933040;73;25715;-90
2024/03/15 07:49:28;;;;;;;906.73;56.00;;;5.80;99.90;;;;;;1938720;72;25829;-90
2024/03/15 07:52:16;;;;;;;942.77;44.90;;;5.70;99.90;;;;;;1925531;73;25209;-90
2024/03/15 07:55:09;;;;;;;993.17;44.93;;;5.60;99.90;;;;;;1925885;73;25226;-90
2024/03/15 07:57:59;;;;;;;1118.33;57.57;;;5.40;99.90;;;;;;1935073;73;25216;-89
2024/03/15 08:00:47;;;;;;;643.97;47.07;;;5.40;99.90;;;;;;1924508;72;25310;-89
2024/03/15 08:03:36;;;;;;;506.07;48.40;;;5.40;99.90;;;;;;1923634;72;25237;-89
2024/03/15 08:06:26;;;;;;;583.43;51.90;;;5.40;99.90;;;;;;1926305;72;25163;-89
2024/03/15 08:09:15;;;;;;;515.73;46.13;;;5.50;99.90;;;;;;1945018;73;25693;-89
2024/03/15 08:12:06;;;;;;;425.40;42.13;;;5.60;99.90;;;;;;1917249;73;25269;-89
2024/03/15 08:17:50;;;;;;;707.83;54.20;;;5.70;99.90;;;;;;1971848;72;26967;-90
2024/03/15 08:23:23;;;;;;;768.00;54.53;;;5.70;99.90;;;;;;1886547;74;27655;-90
2024/03/15 08:26:11;;;;;;;932.90;62.67;;;5.70;99.90;;;;;;1794930;80;25284;-90
2024/03/15 08:29:03;;;;;;;707.00;56.60;;;5.70;99.90;;;;;;1794893;80;25340;-90
2024/03/15 08:34:36;;;;;;;834.77;63.07;;;6.00;99.90;;;;;;1929440;72;27120;-90
2024/03/15 08:37:26;;;;;;;846.23;57.67;;;6.10;99.90;;;;;;1896198;75;25247;-91
2024/03/15 08:40:16;;;;;;;793.70;58.50;;;6.00;99.90;;;;;;1901932;75;25670;-90
2024/03/15 08:43:07;;;;;;;1138.97;68.77;;;5.90;99.90;;;;;;1902900;75;25209;-90
2024/03/15 08:45:56;;;;;;;597.33;50.70;;;5.90;99.90;;;;;;1910573;75;25326;-90
2024/03/15 08:48:46;;;;;;;400.03;46.93;;;5.80;99.90;;;;;;1893607;75;25250;-90
2024/03/15 09:09:10;;;;;;;440.37;40.00;;;5.30;99.90;;;;;;1991191;69;27537;-88
2024/03/15 09:15:42;;;;;;;365.73;38.73;;;5.50;99.90;;;;;;1951658;71;26797;-90
2024/03/15 09:18:33;;;;;;;264.90;32.57;;;5.60;99.90;;;;;;1994854;71;25789;-90
2024/03/15 09:21:22;;;;;;;158.60;29.77;;;5.70;99.90;;;;;;1991650;71;25318;-90
2024/03/15 09:24:12;;;;;;;142.50;30.33;;;5.70;99.90;;;;;;1975727;71;25792;-90
2024/03/15 09:27:01;;;;;;;134.43;29.80;;;6.00;99.90;;;;;;1993455;70;25274;-91
2024/03/15 09:29:50;;;;;;;102.10;26.37;;;6.10;99.90;;;;;;1997658;72;25135;-90
2024/03/15 09:32:39;;;;;;;100.33;26.40;;;6.20;99.90;;;;;;1997771;72;25721;-90
2024/03/15 09:38:22;;;;;;;100.97;25.40;;;6.30;99.90;;;;;;1981305;71;27258;-88
2024/03/15 09:41:20;;;;;;;109.67;27.67;;;6.30;99.90;;;;;;1963522;72;25730;-90
2024/03/15 09:44:14;;;;;;;109.57;28.80;;;6.30;99.90;;;;;;1945881;73;25310;-90
2024/03/15 09:47:05;;;;;;;78.47;20.37;;;6.40;99.90;;;;;;1951348;73;25264;-90
2024/03/15 09:49:56;;;;;;;103.47;26.33;;;6.40;99.90;;;;;;1959394;72;25227;-90
2024/03/15 09:52:46;;;;;;;82.80;23.57;;;6.50;99.90;;;;;;1959027;72;25750;-90
2024/03/15 09:58:38;;;;;;;97.73;24.33;;;6.80;99.90;;;;;;1942598;72;26987;-91
2024/03/15 10:01:28;;;;;;;93.47;25.97;;;6.90;99.90;;;;;;1938223;73;25157;-90
2024/03/15 10:04:16;;;;;;;98.00;26.57;;;6.90;99.90;;;;;;1944875;73;25232;-90
2024/03/15 10:07:52;;;;;;;103.80;28.30;;;6.90;99.90;;;;;;1949086;73;25265;-90
2024/03/15 10:10:43;;;;;;;91.63;27.43;;;7.00;99.90;;;;;;1945552;72;25764;-90
2024/03/15 10:13:32;;;;;;;84.30;26.03;;;7.10;99.90;;;;;;1934665;72;25649;-90
2024/03/15 10:19:03;;;;;;;97.30;29.27;;;7.20;99.90;;;;;;1950729;72;26984;-90
2024/03/15 10:21:54;;;;;;;95.57;28.63;;;7.30;99.90;;;;;;1913343;73;25237;-91
2024/03/15 10:24:45;;;;;;;95.83;29.00;;;7.30;99.90;;;;;;1907351;74;25239;-90
2024/03/15 10:30:33;;;;;;;102.67;30.37;;;7.40;99.90;;;;;;1961714;72;26754;-90
2024/03/15 10:36:08;;;;;;;111.30;33.37;;;7.30;99.90;;;;;;1930699;72;27079;-88
2024/03/15 10:38:58;;;;;;;101.40;32.07;;;7.30;99.90;;;;;;1905765;73;25925;-90
2024/03/15 10:41:48;;;;;;;122.83;34.93;;;7.20;99.90;;;;;;1899415;73;25317;-90
2024/03/15 10:44:38;;;;;;;72.90;21.83;;;7.10;99.90;;;;;;1909460;73;25192;-90
2024/03/15 10:47:28;;;;;;;126.67;38.70;;;7.20;99.90;;;;;;1910909;75;25186;-90
2024/03/15 10:50:21;;;;;;;112.43;36.17;;;7.40;99.90;;;;;;1902670;73;25235;-90
2024/03/15 10:53:13;;;;;;;108.67;33.80;;;7.50;99.90;;;;;;1910755;73;26556;-90
2024/03/15 10:56:07;;;;;;;85.37;28.47;;;7.60;99.90;;;;;;1915131;75;25317;-90
2024/03/15 10:58:56;;;;;;;89.73;28.07;;;7.60;99.90;;;;;;1914060;73;25245;-90
2024/03/15 11:01:45;;;;;;;95.90;32.60;;;7.60;99.90;;;;;;1900786;73;25279;-90
2024/03/15 11:04:38;;;;;;;100.70;32.60;;;7.50;99.90;;;;;;1884151;75;25204;-90
2024/03/15 11:07:30;;;;;;;132.97;39.20;;;7.30;99.90;;;;;;1912280;73;25217;-90
2024/03/15 11:10:22;;;;;;;125.10;39.37;;;7.20;99.90;;;;;;1907712;73;25278;-90
2024/03/15 11:13:13;;;;;;;114.20;33.87;;;7.00;99.90;;;;;;1908718;73;25217;-90
2024/03/15 11:16:03;;;;;;;99.83;32.93;;;6.80;99.90;;;;;;1900874;73;25605;-90
2024/03/15 11:18:52;;;;;;;122.93;38.10;;;6.60;99.90;;;;;;1910338;73;25349;-90
2024/03/15 11:21:40;;;;;;;130.00;37.93;;;6.50;99.90;;;;;;1890250;73;25790;-90
2024/03/15 11:28:15;;;;;;;99.97;28.57;;;6.00;99.90;;;;;;1900764;73;25210;-90
2024/03/15 11:31:09;;;;;;;146.97;40.47;;;5.80;99.90;;;;;;1900330;75;25308;-90
2024/03/15 11:33:59;;;;;;;130.00;38.90;;;5.70;99.90;;;;;;1891340;75;25762;-90
2024/03/15 11:36:47;;;;;;;130.23;39.10;;;5.60;99.90;;;;;;1888411;75;25244;-90
2024/03/15 11:39:37;;;;;;;102.40;32.30;;;5.60;99.90;;;;;;1892067;75;25753;-89
2024/03/15 11:45:09;;;;;;;148.13;45.50;;;5.80;99.90;;;;;;1954132;72;27019;-90
2024/03/15 11:47:59;;;;;;;168.43;47.70;;;5.80;99.90;;;;;;1938209;74;25291;-90
2024/03/15 11:50:49;;;;;;;139.60;42.37;;;5.90;99.90;;;;;;1921077;74;25263;-90
2024/03/15 12:11:07;;;;;;;151.23;44.83;;;6.10;99.90;;;;;;1943343;71;27100;-88
2024/03/15 12:13:57;;;;;;;138.97;45.53;;;6.00;99.90;;;;;;1946703;72;25258;-90
2024/03/15 12:16:47;;;;;;;125.37;40.33;;;6.10;99.90;;;;;;1945430;72;25211;-91
2024/03/15 12:19:37;;;;;;;105.43;38.13;;;6.20;99.90;;;;;;1956973;72;25266;-88
2024/03/15 12:25:09;;;;;;;107.73;38.27;;;6.30;99.90;;;;;;2022350;69;26668;-88
2024/03/15 12:27:58;;;;;;;102.40;37.23;;;6.40;99.90;;;;;;1983458;72;25251;-89
2024/03/15 12:33:55;;;;;;;96.73;35.77;;;6.20;99.90;;;;;;1933946;72;27026;-90
2024/03/15 12:39:33;;;;;;;87.70;32.77;;;6.10;99.90;;;;;;1946103;71;27464;-90
2024/03/15 12:42:23;;;;;;;91.17;31.40;;;6.00;99.90;;;;;;1943907;73;25209;-90
2024/03/15 12:45:14;;;;;;;90.63;30.97;;;5.90;99.90;;;;;;1931612;73;25980;-90
2024/03/15 12:48:04;;;;;;;81.83;29.60;;;5.80;99.90;;;;;;1945760;72;25247;-90
2024/03/15 12:50:53;;;;;;;87.77;30.87;;;5.90;99.90;;;;;;1941321;73;25221;-90
2024/03/15 12:53:43;;;;;;;86.30;29.97;;;5.80;99.90;;;;;;1937921;73;25236;-90
2024/03/15 12:56:34;;;;;;;78.93;28.27;;;5.60;99.90;;;;;;1936974;73;25289;-90
2024/03/15 12:59:21;;;;;;;71.33;26.80;;;5.40;99.90;;;;;;1935610;73;25256;-88
2024/03/15 13:02:11;;;;;;;73.60;26.80;;;5.30;99.90;;;;;;1947455;73;25590;-91
2024/03/15 13:07:52;;;;;;;71.50;27.27;;;5.20;99.90;;;;;;1941676;72;26927;-88
2024/03/15 13:10:42;;;;;;;77.43;27.70;;;5.20;99.90;;;;;;1917171;72;25271;-91
2024/03/15 13:13:31;;;;;;;80.77;27.20;;;5.20;99.90;;;;;;1928010;73;25322;-90
2024/03/15 13:16:20;;;;;;;73.83;26.30;;;5.20;99.90;;;;;;1916705;73;25190;-90
2024/03/15 13:22:09;;;;;;;73.70;24.77;;;5.30;99.90;;;;;;1967432;72;27465;-90
2024/03/15 13:24:59;;;;;;;65.20;26.07;;;5.30;99.90;;;;;;1922327;73;25282;-90
2024/03/15 13:40:54;;;;;;;389.40;34.27;;;5.30;99.90;;;;;;1915886;74;27449;-91
2024/03/15 13:46:27;;;;;;;70.53;25.90;;;4.90;99.90;;;;;;1944914;72;27356;-88
2024/03/15 13:52:02;;;;;;;62.63;25.83;;;5.10;99.90;;;;;;1944254;72;26918;-90
2024/03/15 13:54:52;;;;;;;78.27;27.00;;;5.20;99.90;;;;;;1941385;73;25174;-90
2024/03/15 14:12:04;;;;;;;76.83;29.60;;;5.50;99.90;;;;;;1967755;71;26992;-90
2024/03/15 14:14:53;;;;;;;81.97;26.67;;;5.30;99.90;;;;;;1984391;72;25624;-90
2024/03/15 14:17:42;;;;;;;75.60;27.23;;;5.20;99.90;;;;;;1995695;72;25680;-90
2024/03/15 14:20:50;;;;;;;70.23;26.63;;;5.20;99.90;;;;;;1982715;72;25194;-90
2024/03/15 14:23:40;;;;;;;81.37;29.07;;;5.10;99.90;;;;;;1988954;72;25977;-90
2024/03/15 14:26:30;;;;;;;78.13;29.07;;;5.10;99.90;;;;;;1995623;72;25254;-90
2024/03/15 14:29:20;;;;;;;83.40;28.73;;;5.20;99.90;;;;;;1997220;72;25195;-90
2024/03/15 14:32:49;;;;;;;91.93;30.93;;;5.40;99.90;;;;;;1993335;70;25247;-90
2024/03/15 14:35:38;;;;;;;80.53;28.87;;;5.50;99.90;;;;;;2017552;70;25215;-90
2024/03/15 14:41:18;;;;;;;88.10;31.20;;;5.80;99.90;;;;;;1929687;72;27001;-89
2024/03/15 14:44:10;;;;;;;95.67;33.47;;;6.10;99.90;;;;;;1885060;75;25233;-91
2024/03/15 14:46:59;;;;;;;94.23;33.07;;;6.20;99.90;;;;;;1889456;75;25635;-91
2024/03/15 14:53:39;;;;;;;80.37;27.77;;;6.20;99.90;;;;;;1881627;75;25273;-91
2024/03/15 14:56:31;;;;;;;90.23;31.33;;;6.10;99.90;;;;;;1890629;75;25222;-91
2024/03/15 15:03:11;;;;;;;98.60;31.03;;;5.80;99.90;;;;;;1896583;75;25309;-91
2024/03/15 15:06:00;;;;;;;120.53;29.90;;;5.40;99.90;;;;;;1881560;75;25784;-90
2024/03/15 15:08:50;;;;;;;101.50;31.30;;;5.10;99.90;;;;;;1897845;75;25754;-90
2024/03/15 15:11:45;;;;;;;128.03;37.70;;;4.90;99.90;;;;;;1874292;75;25277;-90
2024/03/15 15:14:37;;;;;;;108.20;32.60;;;5.10;99.90;;;;;;1886104;75;25229;-90
2024/03/15 15:17:30;;;;;;;110.77;36.00;;;5.50;99.90;;;;;;1878005;75;25798;-90
2024/03/15 15:20:23;;;;;;;109.90;36.07;;;5.70;99.90;;;;;;1888441;75;25225;-90
2024/03/15 15:27:04;;;;;;;111.23;36.00;;;5.50;99.90;;;;;;1887335;75;25167;-90
2024/03/15 15:30:48;;;;;;;105.83;36.23;;;5.40;99.90;;;;;;1894556;75;26045;-91
2024/03/15 15:38:08;;;;;;;107.97;36.97;;;5.40;99.90;;;;;;1867972;76;25786;-91
2024/03/15 15:41:08;;;;;;;119.33;38.33;;;5.60;99.90;;;;;;1869415;76;25202;-90
